sensor_id;sensor_type;location;lat;lon;timestamp;P1;durP1;ratioP1;P2;durP2;ratioP2
59028;SDS011;45919;51.420;5.454;2022-09-20T00:00:08;15.73;;;7.75;;
59028;SDS011;45919;51.420;5.454;2022-09-20T00:01:13;16.63;;;8.27;;
59028;SDS011;45919;51.420;5.454;2022-09-20T00:02:17;16.17;;;8.27;;
59028;SDS011;45919;51.420;5.454;2022-09-20T00:03:18;14.93;;;8.18;;
59028;SDS011;45919;51.420;5.454;2022-09-20T00:04:20;14.68;;;8.10;;
59028;SDS011;45919;51.420;5.454;2022-09-20T00:05:22;12.45;;;8.15;;
59028;SDS011;45919;51.420;5.454;2022-09-20T00:06:24;12.13;;;7.55;;
59028;SDS011;45919;51.420;5.454;2022-09-20T00:07:28;17.25;;;8.60;;
59028;SDS011;45919;51.420;5.454;2022-09-20T00:08:30;15.90;;;8.52;;
59028;SDS011;45919;51.420;5.454;2022-09-20T00:09:32;13.75;;;8.10;;
59028;SDS011;45919;51.420;5.454;2022-09-20T00:10:33;14.82;;;8.50;;
59028;SDS011;45919;51.420;5.454;2022-09-20T00:11:39;13.52;;;7.88;;
59028;SDS011;45919;51.420;5.454;2022-09-20T00:12:41;16.02;;;7.95;;
59028;SDS011;45919;51.420;5.454;2022-09-20T00:13:43;14.85;;;8.00;;
59028;SDS011;45919;51.420;5.454;2022-09-20T00:14:46;16.50;;;7.82;;
59028;SDS011;45919;51.420;5.454;2022-09-20T00:15:47;18.88;;;8.05;;
59028;SDS011;45919;51.420;5.454;2022-09-20T00:16:49;16.02;;;7.35;;
59028;SDS011;45919;51.420;5.454;2022-09-20T00:17:51;12.75;;;7.45;;
59028;SDS011;45919;51.420;5.454;2022-09-20T00:18:53;12.50;;;7.07;;
59028;SDS011;45919;51.420;5.454;2022-09-20T00:19:56;12.80;;;7.43;;
59028;SDS011;45919;51.420;5.454;2022-09-20T00:20:58;12.52;;;7.38;;
59028;SDS011;45919;51.420;5.454;2022-09-20T00:21:59;14.40;;;7.00;;
59028;SDS011;45919;51.420;5.454;2022-09-20T00:23:01;12.73;;;7.32;;
59028;SDS011;45919;51.420;5.454;2022-09-20T00:24:03;14.88;;;7.95;;
59028;SDS011;45919;51.420;5.454;2022-09-20T00:25:06;13.05;;;6.75;;
59028;SDS011;45919;51.420;5.454;2022-09-20T00:26:08;13.25;;;7.38;;
59028;SDS011;45919;51.420;5.454;2022-09-20T00:27:10;11.02;;;6.65;;
59028;SDS011;45919;51.420;5.454;2022-09-20T00:28:12;14.13;;;7.20;;
59028;SDS011;45919;51.420;5.454;2022-09-20T00:29:13;12.18;;;6.88;;
59028;SDS011;45919;51.420;5.454;2022-09-20T00:30:15;15.55;;;7.25;;
59028;SDS011;45919;51.420;5.454;2022-09-20T00:31:17;14.65;;;6.70;;
59028;SDS011;45919;51.420;5.454;2022-09-20T00:32:19;14.90;;;6.45;;
59028;SDS011;45919;51.420;5.454;2022-09-20T00:33:21;9.82;;;6.50;;
59028;SDS011;45919;51.420;5.454;2022-09-20T00:34:24;14.80;;;6.40;;
59028;SDS011;45919;51.420;5.454;2022-09-20T00:35:44;11.38;;;6.50;;
59028;SDS011;45919;51.420;5.454;2022-09-20T00:36:46;12.82;;;6.82;;
59028;SDS011;45919;51.420;5.454;2022-09-20T00:37:48;12.52;;;6.93;;
59028;SDS011;45919;51.420;5.454;2022-09-20T00:38:54;12.20;;;6.63;;
59028;SDS011;45919;51.420;5.454;2022-09-20T00:40:02;11.25;;;6.60;;
59028;SDS011;45919;51.420;5.454;2022-09-20T00:41:06;14.52;;;6.93;;
59028;SDS011;45919;51.420;5.454;2022-09-20T00:42:17;12.00;;;6.60;;
59028;SDS011;45919;51.420;5.454;2022-09-20T00:43:33;12.75;;;6.78;;
59028;SDS011;45919;51.420;5.454;2022-09-20T00:44:41;13.45;;;6.78;;
59028;SDS011;45919;51.420;5.454;2022-09-20T00:46:05;12.32;;;6.95;;
59028;SDS011;45919;51.420;5.454;2022-09-20T00:47:25;12.98;;;6.45;;
59028;SDS011;45919;51.420;5.454;2022-09-20T00:48:31;16.50;;;7.07;;
59028;SDS011;45919;51.420;5.454;2022-09-20T00:49:34;12.85;;;7.10;;
59028;SDS011;45919;51.420;5.454;2022-09-20T00:50:42;13.18;;;6.80;;
59028;SDS011;45919;51.420;5.454;2022-09-20T00:51:46;12.20;;;6.90;;
59028;SDS011;45919;51.420;5.454;2022-09-20T00:52:57;13.07;;;7.15;;
59028;SDS011;45919;51.420;5.454;2022-09-20T00:54:03;12.90;;;7.05;;
59028;SDS011;45919;51.420;5.454;2022-09-20T00:55:06;12.23;;;7.15;;
59028;SDS011;45919;51.420;5.454;2022-09-20T00:56:10;11.95;;;6.82;;
59028;SDS011;45919;51.420;5.454;2022-09-20T00:57:16;14.23;;;6.68;;
59028;SDS011;45919;51.420;5.454;2022-09-20T00:58:18;12.77;;;6.53;;
59028;SDS011;45919;51.420;5.454;2022-09-20T00:59:33;10.45;;;6.40;;
59028;SDS011;45919;51.420;5.454;2022-09-20T01:00:39;17.65;;;7.30;;
59028;SDS011;45919;51.420;5.454;2022-09-20T01:01:42;10.45;;;6.72;;
59028;SDS011;45919;51.420;5.454;2022-09-20T01:02:50;10.93;;;6.72;;
59028;SDS011;45919;51.420;5.454;2022-09-20T01:03:57;13.95;;;7.93;;
59028;SDS011;45919;51.420;5.454;2022-09-20T01:05:00;12.95;;;7.10;;
59028;SDS011;45919;51.420;5.454;2022-09-20T01:06:03;13.52;;;7.10;;
59028;SDS011;45919;51.420;5.454;2022-09-20T01:07:10;14.52;;;7.15;;
59028;SDS011;45919;51.420;5.454;2022-09-20T01:08:15;11.85;;;6.38;;
59028;SDS011;45919;51.420;5.454;2022-09-20T01:09:18;11.23;;;7.20;;
59028;SDS011;45919;51.420;5.454;2022-09-20T01:10:19;10.93;;;6.88;;
59028;SDS011;45919;51.420;5.454;2022-09-20T01:11:21;12.40;;;6.65;;
59028;SDS011;45919;51.420;5.454;2022-09-20T01:12:25;12.98;;;7.20;;
59028;SDS011;45919;51.420;5.454;2022-09-20T01:13:30;12.15;;;6.95;;
59028;SDS011;45919;51.420;5.454;2022-09-20T01:14:31;19.02;;;8.10;;
59028;SDS011;45919;51.420;5.454;2022-09-20T01:15:35;14.68;;;6.80;;
59028;SDS011;45919;51.420;5.454;2022-09-20T01:16:39;13.05;;;6.47;;
59028;SDS011;45919;51.420;5.454;2022-09-20T01:17:43;11.30;;;7.15;;
59028;SDS011;45919;51.420;5.454;2022-09-20T01:18:48;11.00;;;6.85;;
59028;SDS011;45919;51.420;5.454;2022-09-20T01:19:58;13.98;;;7.15;;
59028;SDS011;45919;51.420;5.454;2022-09-20T01:21:06;11.68;;;6.80;;
59028;SDS011;45919;51.420;5.454;2022-09-20T01:22:54;14.23;;;6.85;;
59028;SDS011;45919;51.420;5.454;2022-09-20T01:25:13;12.18;;;6.55;;
59028;SDS011;45919;51.420;5.454;2022-09-20T01:27:58;14.15;;;6.30;;
59028;SDS011;45919;51.420;5.454;2022-09-20T01:29:02;12.05;;;6.50;;
59028;SDS011;45919;51.420;5.454;2022-09-20T01:30:15;11.27;;;6.60;;
59028;SDS011;45919;51.420;5.454;2022-09-20T01:31:27;13.80;;;7.35;;
59028;SDS011;45919;51.420;5.454;2022-09-20T01:32:44;11.15;;;6.35;;
59028;SDS011;45919;51.420;5.454;2022-09-20T01:34:10;15.55;;;6.88;;
59028;SDS011;45919;51.420;5.454;2022-09-20T01:35:33;12.57;;;6.40;;
59028;SDS011;45919;51.420;5.454;2022-09-20T01:36:53;11.55;;;6.70;;
59028;SDS011;45919;51.420;5.454;2022-09-20T01:38:08;13.43;;;7.10;;
59028;SDS011;45919;51.420;5.454;2022-09-20T01:42:20;14.10;;;6.45;;
59028;SDS011;45919;51.420;5.454;2022-09-20T01:43:50;11.07;;;6.50;;
59028;SDS011;45919;51.420;5.454;2022-09-20T01:57:11;12.07;;;6.53;;
59028;SDS011;45919;51.420;5.454;2022-09-20T02:00:20;14.80;;;6.45;;
59028;SDS011;45919;51.420;5.454;2022-09-20T02:01:33;11.80;;;6.30;;
59028;SDS011;45919;51.420;5.454;2022-09-20T02:08:06;13.57;;;6.60;;
59028;SDS011;45919;51.420;5.454;2022-09-20T02:09:19;11.00;;;7.10;;
59028;SDS011;45919;51.420;5.454;2022-09-20T02:13:28;10.75;;;6.25;;
59028;SDS011;45919;51.420;5.454;2022-09-20T02:16:47;13.55;;;6.10;;
59028;SDS011;45919;51.420;5.454;2022-09-20T02:17:21;11.85;;;6.43;;
59028;SDS011;45919;51.420;5.454;2022-09-20T02:22:52;13.13;;;6.78;;
59028;SDS011;45919;51.420;5.454;2022-09-20T02:26:45;9.88;;;5.25;;
59028;SDS011;45919;51.420;5.454;2022-09-20T02:29:24;10.55;;;6.05;;
59028;SDS011;45919;51.420;5.454;2022-09-20T02:31:09;11.35;;;5.93;;
59028;SDS011;45919;51.420;5.454;2022-09-20T02:34:43;15.57;;;6.68;;
59028;SDS011;45919;51.420;5.454;2022-09-20T02:39:42;14.75;;;6.80;;
59028;SDS011;45919;51.420;5.454;2022-09-20T02:43:25;12.77;;;6.40;;
59028;SDS011;45919;51.420;5.454;2022-09-20T02:45:35;10.32;;;6.50;;
59028;SDS011;45919;51.420;5.454;2022-09-20T02:46:48;11.63;;;6.85;;
59028;SDS011;45919;51.420;5.454;2022-09-20T02:48:02;12.52;;;7.13;;
59028;SDS011;45919;51.420;5.454;2022-09-20T02:52:03;14.95;;;6.40;;
59028;SDS011;45919;51.420;5.454;2022-09-20T02:53:34;12.15;;;6.28;;
59028;SDS011;45919;51.420;5.454;2022-09-20T03:01:30;11.88;;;6.22;;
59028;SDS011;45919;51.420;5.454;2022-09-20T03:02:45;11.27;;;6.20;;
59028;SDS011;45919;51.420;5.454;2022-09-20T03:05:31;12.23;;;6.18;;
59028;SDS011;45919;51.420;5.454;2022-09-20T03:06:42;13.48;;;6.25;;
59028;SDS011;45919;51.420;5.454;2022-09-20T03:12:13;12.10;;;5.82;;
59028;SDS011;45919;51.420;5.454;2022-09-20T03:14:23;12.45;;;6.30;;
59028;SDS011;45919;51.420;5.454;2022-09-20T03:20:21;12.05;;;6.25;;
59028;SDS011;45919;51.420;5.454;2022-09-20T03:22:57;12.23;;;5.95;;
59028;SDS011;45919;51.420;5.454;2022-09-20T03:26:50;13.18;;;6.82;;
59028;SDS011;45919;51.420;5.454;2022-09-20T03:29:03;11.60;;;5.97;;
59028;SDS011;45919;51.420;5.454;2022-09-20T03:40:38;11.73;;;6.40;;
59028;SDS011;45919;51.420;5.454;2022-09-20T03:43:01;10.82;;;5.70;;
59028;SDS011;45919;51.420;5.454;2022-09-20T03:46:56;13.75;;;6.20;;
59028;SDS011;45919;51.420;5.454;2022-09-20T03:48:27;11.73;;;6.35;;
59028;SDS011;45919;51.420;5.454;2022-09-20T03:52:26;11.68;;;6.38;;
59028;SDS011;45919;51.420;5.454;2022-09-20T03:58:43;10.63;;;6.22;;
59028;SDS011;45919;51.420;5.454;2022-09-20T04:00:03;13.48;;;6.70;;
59028;SDS011;45919;51.420;5.454;2022-09-20T04:03:22;9.18;;;6.90;;
59028;SDS011;45919;51.420;5.454;2022-09-20T04:04:30;11.60;;;6.32;;
59028;SDS011;45919;51.420;5.454;2022-09-20T04:05:44;10.88;;;6.00;;
59028;SDS011;45919;51.420;5.454;2022-09-20T04:11:05;12.38;;;6.65;;
59028;SDS011;45919;51.420;5.454;2022-09-20T04:19:00;10.60;;;6.22;;
59028;SDS011;45919;51.420;5.454;2022-09-20T04:20:06;11.77;;;6.57;;
59028;SDS011;45919;51.420;5.454;2022-09-20T04:21:18;9.75;;;6.30;;
59028;SDS011;45919;51.420;5.454;2022-09-20T04:22:40;10.70;;;6.82;;
59028;SDS011;45919;51.420;5.454;2022-09-20T04:23:46;10.75;;;6.30;;
59028;SDS011;45919;51.420;5.454;2022-09-20T04:25:13;12.88;;;6.47;;
59028;SDS011;45919;51.420;5.454;2022-09-20T04:26:21;10.88;;;7.10;;
59028;SDS011;45919;51.420;5.454;2022-09-20T04:27:40;9.63;;;6.10;;
59028;SDS011;45919;51.420;5.454;2022-09-20T04:29:04;14.98;;;6.38;;
59028;SDS011;45919;51.420;5.454;2022-09-20T04:30:19;13.23;;;6.82;;
59028;SDS011;45919;51.420;5.454;2022-09-20T04:31:26;12.77;;;6.20;;
59028;SDS011;45919;51.420;5.454;2022-09-20T04:32:41;13.00;;;6.47;;
59028;SDS011;45919;51.420;5.454;2022-09-20T04:33:44;13.05;;;5.88;;
59028;SDS011;45919;51.420;5.454;2022-09-20T04:36:55;7.95;;;5.72;;
59028;SDS011;45919;51.420;5.454;2022-09-20T04:38:10;10.50;;;5.78;;
59028;SDS011;45919;51.420;5.454;2022-09-20T04:48:39;8.88;;;5.68;;
59028;SDS011;45919;51.420;5.454;2022-09-20T05:09:47;11.77;;;7.15;;
59028;SDS011;45919;51.420;5.454;2022-09-20T05:11:15;14.02;;;7.60;;
59028;SDS011;45919;51.420;5.454;2022-09-20T05:14:15;12.30;;;7.28;;
59028;SDS011;45919;51.420;5.454;2022-09-20T05:25:29;12.52;;;6.60;;
59028;SDS011;45919;51.420;5.454;2022-09-20T05:28:24;12.32;;;6.55;;
59028;SDS011;45919;51.420;5.454;2022-09-20T05:29:48;11.57;;;6.90;;
59028;SDS011;45919;51.420;5.454;2022-09-20T05:30:59;11.32;;;6.75;;
59028;SDS011;45919;51.420;5.454;2022-09-20T05:32:10;13.95;;;7.10;;
59028;SDS011;45919;51.420;5.454;2022-09-20T05:35:57;10.63;;;7.20;;
59028;SDS011;45919;51.420;5.454;2022-09-20T05:40:17;13.43;;;6.90;;
59028;SDS011;45919;51.420;5.454;2022-09-20T05:41:35;11.90;;;7.13;;
59028;SDS011;45919;51.420;5.454;2022-09-20T05:44:58;13.27;;;7.22;;
59028;SDS011;45919;51.420;5.454;2022-09-20T05:48:03;15.45;;;7.30;;
59028;SDS011;45919;51.420;5.454;2022-09-20T05:50:50;11.32;;;7.07;;
59028;SDS011;45919;51.420;5.454;2022-09-20T05:58:15;11.50;;;7.47;;
59028;SDS011;45919;51.420;5.454;2022-09-20T05:59:43;17.75;;;7.97;;
59028;SDS011;45919;51.420;5.454;2022-09-20T06:00:52;13.40;;;7.68;;
59028;SDS011;45919;51.420;5.454;2022-09-20T06:02:13;12.50;;;7.93;;
59028;SDS011;45919;51.420;5.454;2022-09-20T06:03:34;10.07;;;7.10;;
59028;SDS011;45919;51.420;5.454;2022-09-20T06:05:54;12.38;;;7.53;;
59028;SDS011;45919;51.420;5.454;2022-09-20T06:07:02;14.82;;;8.32;;
59028;SDS011;45919;51.420;5.454;2022-09-20T06:08:17;12.35;;;8.00;;
59028;SDS011;45919;51.420;5.454;2022-09-20T06:09:38;13.57;;;8.23;;
59028;SDS011;45919;51.420;5.454;2022-09-20T06:13:16;15.48;;;8.20;;
59028;SDS011;45919;51.420;5.454;2022-09-20T06:22:36;13.45;;;8.15;;
59028;SDS011;45919;51.420;5.454;2022-09-20T06:23:41;13.93;;;7.90;;
59028;SDS011;45919;51.420;5.454;2022-09-20T06:24:45;14.38;;;8.20;;
59028;SDS011;45919;51.420;5.454;2022-09-20T06:25:55;12.48;;;8.07;;
59028;SDS011;45919;51.420;5.454;2022-09-20T06:27:03;11.80;;;7.45;;
59028;SDS011;45919;51.420;5.454;2022-09-20T06:28:17;15.45;;;7.90;;
59028;SDS011;45919;51.420;5.454;2022-09-20T06:29:26;12.75;;;7.95;;
59028;SDS011;45919;51.420;5.454;2022-09-20T06:30:34;12.75;;;7.97;;
59028;SDS011;45919;51.420;5.454;2022-09-20T06:31:41;11.95;;;7.88;;
59028;SDS011;45919;51.420;5.454;2022-09-20T06:32:52;12.60;;;8.07;;
59028;SDS011;45919;51.420;5.454;2022-09-20T06:35:09;13.23;;;8.27;;
59028;SDS011;45919;51.420;5.454;2022-09-20T06:36:14;11.38;;;8.30;;
59028;SDS011;45919;51.420;5.454;2022-09-20T06:37:47;11.95;;;7.60;;
59028;SDS011;45919;51.420;5.454;2022-09-20T06:40:45;11.55;;;6.95;;
59028;SDS011;45919;51.420;5.454;2022-09-20T06:42:09;11.88;;;6.93;;
59028;SDS011;45919;51.420;5.454;2022-09-20T06:43:10;14.80;;;7.30;;
59028;SDS011;45919;51.420;5.454;2022-09-20T06:44:14;12.30;;;7.32;;
59028;SDS011;45919;51.420;5.454;2022-09-20T06:45:16;13.73;;;7.70;;
59028;SDS011;45919;51.420;5.454;2022-09-20T06:46:17;16.65;;;7.30;;
59028;SDS011;45919;51.420;5.454;2022-09-20T06:47:19;11.30;;;7.10;;
59028;SDS011;45919;51.420;5.454;2022-09-20T06:48:21;14.52;;;7.07;;
59028;SDS011;45919;51.420;5.454;2022-09-20T06:49:25;12.70;;;7.00;;
59028;SDS011;45919;51.420;5.454;2022-09-20T06:50:28;12.63;;;7.53;;
59028;SDS011;45919;51.420;5.454;2022-09-20T06:51:35;14.05;;;7.30;;
59028;SDS011;45919;51.420;5.454;2022-09-20T06:52:38;11.45;;;7.00;;
59028;SDS011;45919;51.420;5.454;2022-09-20T06:53:42;9.88;;;6.82;;
59028;SDS011;45919;51.420;5.454;2022-09-20T06:54:45;11.27;;;7.25;;
59028;SDS011;45919;51.420;5.454;2022-09-20T06:55:48;11.40;;;7.15;;
59028;SDS011;45919;51.420;5.454;2022-09-20T06:56:51;16.02;;;7.53;;
59028;SDS011;45919;51.420;5.454;2022-09-20T06:57:54;14.10;;;7.43;;
59028;SDS011;45919;51.420;5.454;2022-09-20T06:58:55;10.50;;;6.78;;
59028;SDS011;45919;51.420;5.454;2022-09-20T06:59:57;11.15;;;6.78;;
59028;SDS011;45919;51.420;5.454;2022-09-20T07:00:59;13.02;;;7.15;;
59028;SDS011;45919;51.420;5.454;2022-09-20T07:02:00;10.23;;;6.70;;
59028;SDS011;45919;51.420;5.454;2022-09-20T07:03:02;11.02;;;6.82;;
59028;SDS011;45919;51.420;5.454;2022-09-20T07:04:04;12.38;;;7.15;;
59028;SDS011;45919;51.420;5.454;2022-09-20T07:05:12;11.00;;;6.90;;
59028;SDS011;45919;51.420;5.454;2022-09-20T07:08:30;10.90;;;6.35;;
59028;SDS011;45919;51.420;5.454;2022-09-20T07:09:32;13.07;;;6.90;;
59028;SDS011;45919;51.420;5.454;2022-09-20T07:10:34;9.82;;;6.82;;
59028;SDS011;45919;51.420;5.454;2022-09-20T07:11:36;11.77;;;7.05;;
59028;SDS011;45919;51.420;5.454;2022-09-20T07:12:38;12.23;;;7.40;;
59028;SDS011;45919;51.420;5.454;2022-09-20T07:13:40;9.82;;;6.68;;
59028;SDS011;45919;51.420;5.454;2022-09-20T07:14:42;11.95;;;7.05;;
59028;SDS011;45919;51.420;5.454;2022-09-20T07:15:44;10.77;;;6.85;;
59028;SDS011;45919;51.420;5.454;2022-09-20T07:16:46;10.82;;;6.60;;
59028;SDS011;45919;51.420;5.454;2022-09-20T07:17:47;11.55;;;7.13;;
59028;SDS011;45919;51.420;5.454;2022-09-20T07:18:49;12.65;;;7.03;;
59028;SDS011;45919;51.420;5.454;2022-09-20T07:19:52;10.48;;;6.28;;
59028;SDS011;45919;51.420;5.454;2022-09-20T07:20:54;12.00;;;7.03;;
59028;SDS011;45919;51.420;5.454;2022-09-20T07:21:59;10.70;;;6.88;;
59028;SDS011;45919;51.420;5.454;2022-09-20T07:23:00;12.25;;;6.65;;
59028;SDS011;45919;51.420;5.454;2022-09-20T07:24:02;11.43;;;6.60;;
59028;SDS011;45919;51.420;5.454;2022-09-20T07:25:04;9.73;;;6.18;;
59028;SDS011;45919;51.420;5.454;2022-09-20T07:26:12;14.07;;;7.53;;
59028;SDS011;45919;51.420;5.454;2022-09-20T07:27:18;14.45;;;6.43;;
59028;SDS011;45919;51.420;5.454;2022-09-20T07:28:21;10.88;;;6.65;;
59028;SDS011;45919;51.420;5.454;2022-09-20T07:29:23;12.90;;;7.97;;
59028;SDS011;45919;51.420;5.454;2022-09-20T07:30:25;12.45;;;7.68;;
59028;SDS011;45919;51.420;5.454;2022-09-20T07:31:27;10.88;;;6.38;;
59028;SDS011;45919;51.420;5.454;2022-09-20T07:32:29;9.40;;;6.28;;
59028;SDS011;45919;51.420;5.454;2022-09-20T07:33:31;10.38;;;6.15;;
59028;SDS011;45919;51.420;5.454;2022-09-20T07:34:32;9.45;;;6.03;;
59028;SDS011;45919;51.420;5.454;2022-09-20T07:35:34;11.77;;;6.05;;
59028;SDS011;45919;51.420;5.454;2022-09-20T07:36:36;9.88;;;6.75;;
59028;SDS011;45919;51.420;5.454;2022-09-20T07:37:38;9.00;;;5.70;;
59028;SDS011;45919;51.420;5.454;2022-09-20T07:38:50;12.00;;;6.38;;
59028;SDS011;45919;51.420;5.454;2022-09-20T07:39:53;10.23;;;6.45;;
59028;SDS011;45919;51.420;5.454;2022-09-20T07:40:55;11.32;;;6.68;;
59028;SDS011;45919;51.420;5.454;2022-09-20T07:41:57;11.10;;;6.07;;
59028;SDS011;45919;51.420;5.454;2022-09-20T07:42:59;10.70;;;6.13;;
59028;SDS011;45919;51.420;5.454;2022-09-20T07:44:01;8.48;;;5.80;;
59028;SDS011;45919;51.420;5.454;2022-09-20T07:45:21;9.35;;;5.70;;
59028;SDS011;45919;51.420;5.454;2022-09-20T07:46:24;11.02;;;5.57;;
59028;SDS011;45919;51.420;5.454;2022-09-20T07:47:25;9.10;;;5.35;;
59028;SDS011;45919;51.420;5.454;2022-09-20T07:48:29;11.57;;;5.70;;
59028;SDS011;45919;51.420;5.454;2022-09-20T07:49:32;11.02;;;6.47;;
59028;SDS011;45919;51.420;5.454;2022-09-20T07:50:34;12.75;;;6.13;;
59028;SDS011;45919;51.420;5.454;2022-09-20T07:51:36;11.20;;;5.60;;
59028;SDS011;45919;51.420;5.454;2022-09-20T07:52:38;10.90;;;5.80;;
59028;SDS011;45919;51.420;5.454;2022-09-20T07:53:40;8.95;;;5.15;;
59028;SDS011;45919;51.420;5.454;2022-09-20T07:54:41;9.25;;;5.22;;
59028;SDS011;45919;51.420;5.454;2022-09-20T07:55:54;8.75;;;5.00;;
59028;SDS011;45919;51.420;5.454;2022-09-20T07:56:57;8.35;;;4.70;;
59028;SDS011;45919;51.420;5.454;2022-09-20T07:57:59;7.70;;;4.90;;
59028;SDS011;45919;51.420;5.454;2022-09-20T07:59:00;8.27;;;4.60;;
59028;SDS011;45919;51.420;5.454;2022-09-20T08:00:05;9.80;;;5.10;;
59028;SDS011;45919;51.420;5.454;2022-09-20T08:01:10;10.20;;;5.00;;
59028;SDS011;45919;51.420;5.454;2022-09-20T08:02:13;8.20;;;5.10;;
59028;SDS011;45919;51.420;5.454;2022-09-20T08:03:16;6.93;;;4.82;;
59028;SDS011;45919;51.420;5.454;2022-09-20T08:04:17;8.02;;;4.50;;
59028;SDS011;45919;51.420;5.454;2022-09-20T08:05:19;9.35;;;4.55;;
59028;SDS011;45919;51.420;5.454;2022-09-20T08:08:37;12.23;;;5.00;;
59028;SDS011;45919;51.420;5.454;2022-09-20T08:09:40;11.10;;;4.30;;
59028;SDS011;45919;51.420;5.454;2022-09-20T08:10:43;10.68;;;4.40;;
59028;SDS011;45919;51.420;5.454;2022-09-20T08:11:46;7.57;;;4.55;;
59028;SDS011;45919;51.420;5.454;2022-09-20T08:12:48;10.77;;;4.22;;
59028;SDS011;45919;51.420;5.454;2022-09-20T08:14:14;6.40;;;4.30;;
59028;SDS011;45919;51.420;5.454;2022-09-20T08:15:17;10.98;;;4.20;;
59028;SDS011;45919;51.420;5.454;2022-09-20T08:16:19;8.52;;;3.53;;
59028;SDS011;45919;51.420;5.454;2022-09-20T08:17:21;7.35;;;3.75;;
59028;SDS011;45919;51.420;5.454;2022-09-20T08:18:22;9.40;;;3.67;;
59028;SDS011;45919;51.420;5.454;2022-09-20T08:19:28;8.80;;;3.90;;
59028;SDS011;45919;51.420;5.454;2022-09-20T08:20:30;6.82;;;3.45;;
59028;SDS011;45919;51.420;5.454;2022-09-20T08:21:33;7.68;;;3.97;;
59028;SDS011;45919;51.420;5.454;2022-09-20T08:22:35;8.10;;;3.90;;
59028;SDS011;45919;51.420;5.454;2022-09-20T08:23:40;9.38;;;4.32;;
59028;SDS011;45919;51.420;5.454;2022-09-20T08:24:43;10.18;;;4.20;;
59028;SDS011;45919;51.420;5.454;2022-09-20T08:25:45;8.65;;;3.85;;
59028;SDS011;45919;51.420;5.454;2022-09-20T08:26:48;10.10;;;3.83;;
59028;SDS011;45919;51.420;5.454;2022-09-20T08:27:53;9.80;;;4.18;;
59028;SDS011;45919;51.420;5.454;2022-09-20T08:28:55;8.38;;;3.70;;
59028;SDS011;45919;51.420;5.454;2022-09-20T08:29:58;8.48;;;3.45;;
59028;SDS011;45919;51.420;5.454;2022-09-20T08:31:02;7.05;;;3.33;;
59028;SDS011;45919;51.420;5.454;2022-09-20T08:32:08;9.40;;;3.90;;
59028;SDS011;45919;51.420;5.454;2022-09-20T08:33:11;10.60;;;3.85;;
59028;SDS011;45919;51.420;5.454;2022-09-20T08:34:13;9.60;;;3.45;;
59028;SDS011;45919;51.420;5.454;2022-09-20T08:35:16;6.18;;;3.33;;
59028;SDS011;45919;51.420;5.454;2022-09-20T08:36:19;5.97;;;3.00;;
59028;SDS011;45919;51.420;5.454;2022-09-20T08:37:22;9.95;;;3.45;;
59028;SDS011;45919;51.420;5.454;2022-09-20T08:38:24;7.00;;;3.70;;
59028;SDS011;45919;51.420;5.454;2022-09-20T08:39:48;5.60;;;2.90;;
59028;SDS011;45919;51.420;5.454;2022-09-20T08:42:17;8.50;;;3.13;;
59028;SDS011;45919;51.420;5.454;2022-09-20T08:43:50;8.00;;;2.83;;
59028;SDS011;45919;51.420;5.454;2022-09-20T08:44:59;7.47;;;2.75;;
59028;SDS011;45919;51.420;5.454;2022-09-20T08:46:05;9.00;;;3.05;;
59028;SDS011;45919;51.420;5.454;2022-09-20T08:48:21;8.85;;;3.00;;
59028;SDS011;45919;51.420;5.454;2022-09-20T08:49:28;7.55;;;2.67;;
59028;SDS011;45919;51.420;5.454;2022-09-20T08:50:30;4.57;;;2.28;;
59028;SDS011;45919;51.420;5.454;2022-09-20T08:51:36;7.03;;;2.50;;
59028;SDS011;45919;51.420;5.454;2022-09-20T08:52:45;9.90;;;2.60;;
59028;SDS011;45919;51.420;5.454;2022-09-20T08:53:49;6.72;;;2.67;;
59028;SDS011;45919;51.420;5.454;2022-09-20T08:54:53;6.75;;;2.60;;
59028;SDS011;45919;51.420;5.454;2022-09-20T08:55:58;13.77;;;3.17;;
59028;SDS011;45919;51.420;5.454;2022-09-20T08:57:01;8.75;;;2.55;;
59028;SDS011;45919;51.420;5.454;2022-09-20T08:58:09;5.55;;;2.28;;
59028;SDS011;45919;51.420;5.454;2022-09-20T08:59:19;5.32;;;2.28;;
59028;SDS011;45919;51.420;5.454;2022-09-20T09:00:27;5.70;;;2.00;;
59028;SDS011;45919;51.420;5.454;2022-09-20T09:01:32;7.30;;;1.92;;
59028;SDS011;45919;51.420;5.454;2022-09-20T09:02:33;8.10;;;2.05;;
59028;SDS011;45919;51.420;5.454;2022-09-20T09:03:35;8.23;;;2.28;;
59028;SDS011;45919;51.420;5.454;2022-09-20T09:04:37;6.03;;;2.22;;
59028;SDS011;45919;51.420;5.454;2022-09-20T09:05:40;6.00;;;1.80;;
59028;SDS011;45919;51.420;5.454;2022-09-20T09:06:49;4.45;;;1.80;;
59028;SDS011;45919;51.420;5.454;2022-09-20T09:07:52;7.13;;;1.90;;
59028;SDS011;45919;51.420;5.454;2022-09-20T09:08:55;6.80;;;1.80;;
59028;SDS011;45919;51.420;5.454;2022-09-20T09:09:59;4.05;;;1.60;;
59028;SDS011;45919;51.420;5.454;2022-09-20T09:11:04;5.10;;;1.67;;
59028;SDS011;45919;51.420;5.454;2022-09-20T09:12:29;5.80;;;1.70;;
59028;SDS011;45919;51.420;5.454;2022-09-20T09:13:46;7.70;;;1.70;;
59028;SDS011;45919;51.420;5.454;2022-09-20T09:14:58;7.18;;;2.15;;
59028;SDS011;45919;51.420;5.454;2022-09-20T09:16:14;6.40;;;2.03;;
59028;SDS011;45919;51.420;5.454;2022-09-20T09:17:26;4.90;;;2.03;;
59028;SDS011;45919;51.420;5.454;2022-09-20T09:18:30;10.52;;;2.58;;
59028;SDS011;45919;51.420;5.454;2022-09-20T09:21:22;7.57;;;1.77;;
59028;SDS011;45919;51.420;5.454;2022-09-20T09:22:39;4.35;;;1.80;;
59028;SDS011;45919;51.420;5.454;2022-09-20T09:23:49;2.95;;;1.45;;
59028;SDS011;45919;51.420;5.454;2022-09-20T09:26:16;5.85;;;1.50;;
59028;SDS011;45919;51.420;5.454;2022-09-20T09:27:23;7.95;;;2.08;;
59028;SDS011;45919;51.420;5.454;2022-09-20T09:28:25;3.70;;;1.45;;
59028;SDS011;45919;51.420;5.454;2022-09-20T09:29:29;5.78;;;1.50;;
59028;SDS011;45919;51.420;5.454;2022-09-20T09:30:41;7.82;;;1.77;;
59028;SDS011;45919;51.420;5.454;2022-09-20T09:32:47;6.60;;;1.65;;
59028;SDS011;45919;51.420;5.454;2022-09-20T09:33:48;8.43;;;1.50;;
59028;SDS011;45919;51.420;5.454;2022-09-20T09:34:50;5.03;;;1.60;;
59028;SDS011;45919;51.420;5.454;2022-09-20T09:36:59;4.13;;;1.40;;
59028;SDS011;45919;51.420;5.454;2022-09-20T09:38:01;7.25;;;1.33;;
59028;SDS011;45919;51.420;5.454;2022-09-20T09:39:13;6.88;;;1.40;;
59028;SDS011;45919;51.420;5.454;2022-09-20T09:40:35;5.68;;;1.38;;
59028;SDS011;45919;51.420;5.454;2022-09-20T09:41:37;3.88;;;1.30;;
59028;SDS011;45919;51.420;5.454;2022-09-20T09:42:46;6.22;;;1.40;;
59028;SDS011;45919;51.420;5.454;2022-09-20T09:44:35;4.05;;;1.42;;
59028;SDS011;45919;51.420;5.454;2022-09-20T09:45:33;5.55;;;1.35;;
59028;SDS011;45919;51.420;5.454;2022-09-20T09:46:39;4.00;;;1.20;;
59028;SDS011;45919;51.420;5.454;2022-09-20T09:47:40;6.60;;;1.52;;
59028;SDS011;45919;51.420;5.454;2022-09-20T09:48:43;4.38;;;1.13;;
59028;SDS011;45919;51.420;5.454;2022-09-20T09:49:56;3.70;;;1.25;;
59028;SDS011;45919;51.420;5.454;2022-09-20T09:52:13;5.03;;;1.30;;
59028;SDS011;45919;51.420;5.454;2022-09-20T09:53:20;7.38;;;1.67;;
59028;SDS011;45919;51.420;5.454;2022-09-20T09:54:23;6.07;;;1.55;;
59028;SDS011;45919;51.420;5.454;2022-09-20T09:55:52;4.97;;;1.40;;
59028;SDS011;45919;51.420;5.454;2022-09-20T09:58:25;6.05;;;1.40;;
59028;SDS011;45919;51.420;5.454;2022-09-20T10:00:52;4.10;;;1.30;;
59028;SDS011;45919;51.420;5.454;2022-09-20T10:04:34;6.03;;;1.30;;
59028;SDS011;45919;51.420;5.454;2022-09-20T10:07:05;6.25;;;1.50;;
59028;SDS011;45919;51.420;5.454;2022-09-20T10:08:29;5.35;;;1.55;;
59028;SDS011;45919;51.420;5.454;2022-09-20T10:11:19;7.03;;;1.20;;
59028;SDS011;45919;51.420;5.454;2022-09-20T10:15:59;6.70;;;1.35;;